Time;durP1;ratioP1;P1;durP2;ratioP2;P2;SDS_P1;SDS_P2;PMS_P1;PMS_P2;Temp;Humidity;BMP_temperature;BMP_pressure;BME280_temperature;BME280_humidity;BME280_pressure;Samples;Min_cycle;Max_cycle;Signal;HPM_P1;HPM_P2
2022/08/19 00:00:21;;;;;;;18.23;16.33;;;;;;;;;;5093971;28;20275;-74
2022/08/19 00:02:47;;;;;;;16.83;15.23;;;;;;;;;;5092339;28;20204;-74
2022/08/19 00:05:14;;;;;;;16.53;14.90;;;;;;;;;;5091749;28;20566;-74
2022/08/19 00:07:42;;;;;;;15.00;13.60;;;;;;;;;;5094275;28;20523;-75
2022/08/19 00:10:08;;;;;;;15.33;13.93;;;;;;;;;;5089706;28;20231;-74
2022/08/19 00:12:35;;;;;;;15.90;14.37;;;;;;;;;;5092715;28;20202;-74
2022/08/19 00:15:02;;;;;;;15.83;14.30;;;;;;;;;;5092023;28;20237;-74
2022/08/19 00:17:28;;;;;;;16.47;14.80;;;;;;;;;;5090510;28;20188;-75
2022/08/19 00:19:54;;;;;;;16.63;15.13;;;;;;;;;;5090811;28;20602;-75
2022/08/19 00:22:20;;;;;;;17.83;15.93;;;;;;;;;;5086124;28;20205;-75
2022/08/19 00:24:46;;;;;;;16.17;14.60;;;;;;;;;;5089247;28;20177;-74
2022/08/19 00:27:13;;;;;;;16.60;14.80;;;;;;;;;;5093356;28;20194;-74
2022/08/19 00:29:39;;;;;;;16.07;14.47;;;;;;;;;;5089877;28;20241;-74
2022/08/19 00:32:06;;;;;;;15.83;14.23;;;;;;;;;;5090837;28;20717;-74
2022/08/19 00:34:32;;;;;;;16.27;14.57;;;;;;;;;;5089853;28;20176;-74
2022/08/19 00:36:59;;;;;;;15.77;14.27;;;;;;;;;;5091497;28;20185;-74
2022/08/19 00:39:25;;;;;;;16.80;14.83;;;;;;;;;;5088149;28;22753;-74
2022/08/19 00:41:51;;;;;;;16.47;14.83;;;;;;;;;;5087641;28;20333;-74
2022/08/19 00:44:21;;;;;;;16.10;13.83;;;;;;;;;;5088061;28;20239;-75
2022/08/19 00:46:48;;;;;;;17.30;15.57;;;;;;;;;;5088845;28;20520;-75
2022/08/19 00:49:19;;;;;;;16.63;14.93;;;;;;;;;;5091196;28;20187;-74
2022/08/19 00:51:47;;;;;;;15.53;14.07;;;;;;;;;;5086853;28;20302;-74
2022/08/19 00:54:13;;;;;;;17.17;15.50;;;;;;;;;;5090706;28;20212;-75
2022/08/19 00:56:40;;;;;;;16.00;14.40;;;;;;;;;;5090824;28;20335;-75
2022/08/19 00:59:08;;;;;;;16.27;14.63;;;;;;;;;;5068535;28;20177;-75
2022/08/19 01:01:42;;;;;;;18.73;16.83;;;;;;;;;;5089404;28;20197;-74
2022/08/19 01:04:09;;;;;;;18.10;16.33;;;;;;;;;;5087090;28;20184;-75
2022/08/19 01:06:37;;;;;;;18.30;16.53;;;;;;;;;;5089042;28;20184;-74
2022/08/19 01:09:03;;;;;;;17.83;16.10;;;;;;;;;;5091655;28;20188;-74
2022/08/19 01:11:31;;;;;;;16.50;14.93;;;;;;;;;;5089601;28;20203;-74
2022/08/19 01:13:58;;;;;;;16.90;15.30;;;;;;;;;;5080276;28;20227;-74
2022/08/19 01:16:25;;;;;;;16.83;15.23;;;;;;;;;;5089802;28;20177;-75
2022/08/19 01:18:52;;;;;;;17.63;15.93;;;;;;;;;;5092600;28;20177;-74
2022/08/19 01:21:21;;;;;;;16.13;14.63;;;;;;;;;;5088757;28;20241;-75
2022/08/19 01:23:47;;;;;;;18.67;16.83;;;;;;;;;;5090126;28;20562;-75
2022/08/19 01:26:15;;;;;;;19.20;17.30;;;;;;;;;;5088508;28;20189;-74
2022/08/19 01:28:42;;;;;;;18.30;16.40;;;;;;;;;;5073957;28;20188;-75
2022/08/19 01:31:11;;;;;;;18.20;15.87;;;;;;;;;;5085288;28;20718;-75
2022/08/19 01:33:37;;;;;;;19.23;16.87;;;;;;;;;;5089283;28;20695;-75
2022/08/19 01:36:05;;;;;;;15.87;14.20;;;;;;;;;;5074565;28;20187;-75
2022/08/19 01:38:31;;;;;;;17.30;15.40;;;;;;;;;;5092375;28;20596;-74
2022/08/19 01:40:58;;;;;;;18.03;15.57;;;;;;;;;;5091298;28;20254;-75
2022/08/19 01:43:24;;;;;;;16.60;14.87;;;;;;;;;;5090797;28;20222;-74
2022/08/19 01:45:50;;;;;;;16.97;15.37;;;;;;;;;;5091458;28;20180;-74
2022/08/19 01:48:17;;;;;;;16.93;15.30;;;;;;;;;;5088784;28;20208;-74
2022/08/19 01:50:43;;;;;;;16.77;15.07;;;;;;;;;;5088561;28;20184;-74
2022/08/19 01:53:11;;;;;;;17.73;16.03;;;;;;;;;;5089112;28;20208;-75
2022/08/19 01:55:39;;;;;;;17.73;16.00;;;;;;;;;;5090076;28;20183;-74
2022/08/19 01:58:06;;;;;;;17.53;15.83;;;;;;;;;;5089569;28;20175;-75
2022/08/19 02:00:32;;;;;;;17.77;16.00;;;;;;;;;;5071823;28;20192;-75
2022/08/19 02:03:00;;;;;;;18.00;16.20;;;;;;;;;;5090211;28;20295;-74
2022/08/19 02:05:28;;;;;;;17.77;15.97;;;;;;;;;;5090222;28;20624;-74
2022/08/19 02:07:55;;;;;;;17.80;16.03;;;;;;;;;;5092047;28;20184;-74
2022/08/19 02:10:22;;;;;;;16.67;14.97;;;;;;;;;;5090030;28;20192;-73
2022/08/19 02:12:49;;;;;;;16.67;15.10;;;;;;;;;;5090102;28;20303;-75
2022/08/19 02:15:16;;;;;;;17.53;15.77;;;;;;;;;;5089187;28;20206;-74
2022/08/19 02:17:43;;;;;;;16.87;15.27;;;;;;;;;;5091657;28;20188;-74
2022/08/19 02:20:09;;;;;;;16.00;14.40;;;;;;;;;;5087901;28;20192;-75
2022/08/19 02:22:35;;;;;;;17.70;15.90;;;;;;;;;;5091340;28;20204;-74
2022/08/19 02:25:02;;;;;;;18.80;15.80;;;;;;;;;;5088868;28;20188;-74
2022/08/19 02:27:28;;;;;;;18.83;16.83;;;;;;;;;;5091892;28;20180;-75
2022/08/19 02:29:54;;;;;;;16.23;14.63;;;;;;;;;;5088058;28;20674;-75
2022/08/19 02:32:20;;;;;;;17.37;15.67;;;;;;;;;;5088019;28;20251;-74
2022/08/19 02:34:47;;;;;;;17.77;16.07;;;;;;;;;;5073542;28;20172;-74
2022/08/19 02:39:59;;;;;;;17.23;15.63;;;;;;;;;;5090990;28;20245;-74
2022/08/19 02:42:25;;;;;;;17.07;15.37;;;;;;;;;;5089186;28;20760;-74
2022/08/19 02:44:52;;;;;;;16.77;15.07;;;;;;;;;;5083697;28;20286;-75
2022/08/19 02:47:18;;;;;;;17.27;15.57;;;;;;;;;;5090249;28;20188;-75
2022/08/19 02:49:45;;;;;;;17.37;15.67;;;;;;;;;;5092673;28;20169;-75
2022/08/19 02:52:12;;;;;;;17.70;15.90;;;;;;;;;;5089345;28;20659;-75
2022/08/19 02:54:38;;;;;;;17.47;15.57;;;;;;;;;;5090759;28;20227;-74
2022/08/19 02:57:05;;;;;;;16.20;14.60;;;;;;;;;;5087760;28;20188;-75
2022/08/19 02:59:33;;;;;;;16.13;14.53;;;;;;;;;;5089707;28;20173;-75
2022/08/19 03:01:59;;;;;;;16.63;14.87;;;;;;;;;;5090367;28;20207;-75
2022/08/19 03:04:25;;;;;;;17.40;15.50;;;;;;;;;;5085076;28;20261;-75
2022/08/19 03:06:52;;;;;;;18.43;16.63;;;;;;;;;;5084768;28;20183;-75
2022/08/19 03:09:19;;;;;;;16.47;14.87;;;;;;;;;;5090358;28;20172;-75
2022/08/19 03:11:46;;;;;;;16.90;15.20;;;;;;;;;;5088875;28;20223;-74
2022/08/19 03:14:12;;;;;;;19.23;17.00;;;;;;;;;;5089545;28;20206;-74
2022/08/19 03:16:46;;;;;;;19.10;17.03;;;;;;;;;;5088144;28;20199;-75
2022/08/19 03:19:13;;;;;;;17.43;15.63;;;;;;;;;;5073023;28;20188;-75
2022/08/19 03:21:39;;;;;;;17.90;16.10;;;;;;;;;;5090126;28;20741;-74
2022/08/19 03:24:07;;;;;;;18.67;16.13;;;;;;;;;;5089628;28;20191;-74
2022/08/19 03:26:33;;;;;;;19.10;17.13;;;;;;;;;;5089975;28;20176;-75
2022/08/19 03:29:03;;;;;;;18.57;16.77;;;;;;;;;;5090864;28;20184;-74
2022/08/19 03:31:31;;;;;;;18.17;16.23;;;;;;;;;;5087164;28;20287;-74
2022/08/19 03:33:57;;;;;;;18.80;16.87;;;;;;;;;;5089296;28;20208;-75
2022/08/19 03:36:25;;;;;;;17.37;15.67;;;;;;;;;;5089501;28;20537;-74
2022/08/19 03:38:56;;;;;;;17.20;15.50;;;;;;;;;;5090040;28;20235;-74
2022/08/19 03:41:24;;;;;;;17.77;15.97;;;;;;;;;;5090152;28;20212;-74
2022/08/19 03:43:50;;;;;;;18.17;16.37;;;;;;;;;;5090347;28;20271;-74
2022/08/19 03:46:22;;;;;;;20.43;17.63;;;;;;;;;;5088821;28;20212;-75
2022/08/19 03:48:49;;;;;;;18.30;16.27;;;;;;;;;;5088970;28;20742;-75
2022/08/19 03:51:19;;;;;;;17.70;15.90;;;;;;;;;;5080806;28;20184;-74
2022/08/19 03:53:46;;;;;;;18.10;16.27;;;;;;;;;;5087548;28;20755;-74
2022/08/19 03:56:13;;;;;;;18.33;15.63;;;;;;;;;;5089816;28;20539;-74
2022/08/19 03:58:39;;;;;;;15.73;14.23;;;;;;;;;;5087599;28;20206;-74
2022/08/19 04:01:14;;;;;;;17.03;15.33;;;;;;;;;;5088123;28;20177;-75
2022/08/19 04:03:41;;;;;;;16.53;14.93;;;;;;;;;;5067836;28;20188;-74
2022/08/19 04:06:15;;;;;;;17.73;15.97;;;;;;;;;;5089374;28;20191;-75
2022/08/19 04:08:42;;;;;;;17.17;15.37;;;;;;;;;;5088023;28;20270;-75
2022/08/19 04:11:09;;;;;;;17.23;15.57;;;;;;;;;;5087812;28;20188;-75
2022/08/19 04:13:35;;;;;;;19.20;17.40;;;;;;;;;;5087368;28;21034;-74
2022/08/19 04:16:02;;;;;;;18.10;16.40;;;;;;;;;;5087240;28;20218;-75
2022/08/19 04:18:29;;;;;;;16.80;15.10;;;;;;;;;;5088931;28;20178;-75
2022/08/19 04:20:56;;;;;;;18.07;16.27;;;;;;;;;;5089274;28;20180;-74
2022/08/19 04:23:23;;;;;;;17.27;15.40;;;;;;;;;;5091880;28;20617;-74
2022/08/19 04:25:49;;;;;;;17.10;15.37;;;;;;;;;;5091552;28;20188;-75
2022/08/19 04:28:15;;;;;;;17.23;15.43;;;;;;;;;;5088889;28;20185;-74
2022/08/19 04:30:42;;;;;;;18.37;16.40;;;;;;;;;;5090589;28;20211;-74
2022/08/19 04:33:09;;;;;;;18.53;16.63;;;;;;;;;;5089221;28;20204;-75
2022/08/19 04:35:39;;;;;;;17.67;15.87;;;;;;;;;;5090606;28;20187;-75
2022/08/19 04:38:06;;;;;;;16.77;14.97;;;;;;;;;;5092659;28;20719;-75
2022/08/19 04:43:17;;;;;;;16.63;15.13;;;;;;;;;;5090975;28;20197;-75
2022/08/19 04:45:44;;;;;;;17.10;15.40;;;;;;;;;;5092464;28;20180;-75
2022/08/19 04:48:11;;;;;;;16.60;15.00;;;;;;;;;;5092158;28;20717;-75
2022/08/19 04:50:40;;;;;;;17.53;15.83;;;;;;;;;;5091479;28;20188;-74
2022/08/19 04:53:07;;;;;;;16.60;14.90;;;;;;;;;;5090509;28;20683;-75
2022/08/19 04:55:33;;;;;;;16.90;15.03;;;;;;;;;;5093298;28;20176;-75
2022/08/19 04:57:59;;;;;;;18.07;16.27;;;;;;;;;;5090944;28;20257;-75
2022/08/19 05:00:25;;;;;;;17.87;15.97;;;;;;;;;;5090665;28;20176;-73
2022/08/19 05:02:51;;;;;;;17.83;16.10;;;;;;;;;;5087743;28;20206;-74
2022/08/19 05:05:18;;;;;;;18.53;16.57;;;;;;;;;;5088181;28;20184;-75
2022/08/19 05:07:44;;;;;;;18.10;16.30;;;;;;;;;;5092971;28;20769;-74
2022/08/19 05:10:11;;;;;;;20.53;18.43;;;;;;;;;;5090235;28;20212;-75
2022/08/19 05:12:37;;;;;;;20.40;18.37;;;;;;;;;;5091193;28;20294;-74
2022/08/19 05:15:05;;;;;;;18.30;16.47;;;;;;;;;;5089981;28;20188;-75
2022/08/19 05:17:31;;;;;;;18.60;16.77;;;;;;;;;;5090915;28;20177;-74
2022/08/19 05:22:43;;;;;;;19.27;17.37;;;;;;;;;;5086282;28;20212;-75
2022/08/19 05:25:11;;;;;;;19.70;17.77;;;;;;;;;;5089998;28;20204;-75
2022/08/19 05:27:38;;;;;;;18.07;16.27;;;;;;;;;;5092536;28;20188;-75
2022/08/19 05:30:05;;;;;;;19.43;16.97;;;;;;;;;;5089181;28;20208;-75
2022/08/19 05:32:31;;;;;;;17.93;16.13;;;;;;;;;;5086669;28;20216;-74
2022/08/19 05:34:57;;;;;;;18.53;16.63;;;;;;;;;;5089638;28;20185;-75
2022/08/19 05:37:26;;;;;;;18.93;17.00;;;;;;;;;;5091969;28;20192;-75
2022/08/19 05:39:52;;;;;;;19.50;17.50;;;;;;;;;;5090420;28;20188;-75
2022/08/19 05:42:19;;;;;;;18.77;16.97;;;;;;;;;;5089710;28;20196;-75
2022/08/19 05:44:46;;;;;;;18.53;16.70;;;;;;;;;;5090211;28;20181;-75
2022/08/19 05:47:14;;;;;;;18.87;16.87;;;;;;;;;;5091464;28;20204;-74
2022/08/19 05:49:40;;;;;;;19.10;17.10;;;;;;;;;;5090677;28;20181;-75
2022/08/19 05:52:10;;;;;;;19.57;17.57;;;;;;;;;;5091137;28;20220;-74
2022/08/19 05:54:39;;;;;;;19.17;17.10;;;;;;;;;;5089850;28;20202;-74
2022/08/19 05:57:06;;;;;;;18.60;16.70;;;;;;;;;;5092051;28;20268;-75
2022/08/19 05:59:34;;;;;;;20.30;17.90;;;;;;;;;;5090110;28;20185;-75
2022/08/19 06:02:00;;;;;;;19.33;17.33;;;;;;;;;;5090086;28;20566;-75
2022/08/19 06:04:26;;;;;;;18.83;16.90;;;;;;;;;;5086589;28;20206;-75
2022/08/19 06:06:53;;;;;;;17.90;16.17;;;;;;;;;;5091952;28;20184;-75
2022/08/19 06:09:20;;;;;;;18.67;16.63;;;;;;;;;;5086193;28;20227;-74
2022/08/19 06:11:48;;;;;;;18.47;16.63;;;;;;;;;;5089739;28;20227;-75
2022/08/19 06:14:18;;;;;;;20.60;18.17;;;;;;;;;;5090012;28;20213;-75
2022/08/19 06:16:45;;;;;;;21.77;19.47;;;;;;;;;;5090988;28;20302;-75
2022/08/19 06:19:17;;;;;;;20.60;18.40;;;;;;;;;;5089251;28;20181;-74
2022/08/19 06:21:44;;;;;;;19.53;17.43;;;;;;;;;;5087173;28;20217;-75
2022/08/19 06:24:12;;;;;;;19.20;17.20;;;;;;;;;;5087002;28;20204;-75
2022/08/19 06:26:39;;;;;;;19.70;17.50;;;;;;;;;;5088170;28;20212;-75
2022/08/19 06:29:06;;;;;;;22.50;19.73;;;;;;;;;;5086502;28;20184;-76
2022/08/19 06:31:33;;;;;;;20.30;17.03;;;;;;;;;;5090104;28;20229;-74
2022/08/19 06:34:02;;;;;;;20.67;18.33;;;;;;;;;;5088325;28;20212;-73
2022/08/19 06:36:38;;;;;;;22.47;19.67;;;;;;;;;;5087533;28;20179;-71
2022/08/19 06:39:08;;;;;;;23.50;20.37;;;;;;;;;;5084878;28;20183;-74
2022/08/19 06:41:36;;;;;;;20.97;18.63;;;;;;;;;;5085726;28;20180;-71
2022/08/19 06:44:03;;;;;;;22.07;17.40;;;;;;;;;;5084999;28;20180;-73
2022/08/19 06:46:30;;;;;;;18.80;16.87;;;;;;;;;;5088038;28;20191;-72
2022/08/19 06:48:56;;;;;;;18.23;16.43;;;;;;;;;;5091145;28;20193;-73
2022/08/19 06:51:23;;;;;;;19.87;17.80;;;;;;;;;;5085017;28;20192;-73
2022/08/19 06:53:50;;;;;;;16.53;14.83;;;;;;;;;;5088981;28;20694;-73
2022/08/19 06:56:17;;;;;;;17.13;15.43;;;;;;;;;;5089380;28;20267;-73
2022/08/19 06:58:43;;;;;;;15.83;14.13;;;;;;;;;;5085175;28;20644;-73
2022/08/19 07:01:10;;;;;;;16.20;14.50;;;;;;;;;;5087071;28;20647;-73
2022/08/19 07:03:37;;;;;;;16.10;14.43;;;;;;;;;;5090634;28;20257;-73
2022/08/19 07:06:05;;;;;;;17.30;15.20;;;;;;;;;;5087222;28;20176;-73
2022/08/19 07:08:31;;;;;;;16.77;15.03;;;;;;;;;;5090736;28;20184;-73
2022/08/19 07:10:57;;;;;;;15.13;13.63;;;;;;;;;;5086328;28;20194;-73
2022/08/19 07:13:24;;;;;;;16.73;15.07;;;;;;;;;;5088334;28;20296;-73
2022/08/19 07:15:50;;;;;;;14.97;13.47;;;;;;;;;;5081541;28;20188;-72
2022/08/19 07:18:21;;;;;;;16.17;14.57;;;;;;;;;;5091916;28;20699;-73
2022/08/19 07:20:47;;;;;;;16.30;14.60;;;;;;;;;;5085492;28;20267;-73
2022/08/19 07:23:14;;;;;;;15.07;13.67;;;;;;;;;;5086666;28;20297;-71
2022/08/19 07:25:40;;;;;;;15.83;14.27;;;;;;;;;;5086513;28;20222;-73
2022/08/19 07:28:09;;;;;;;15.07;13.57;;;;;;;;;;5094021;28;20208;-73
2022/08/19 07:30:40;;;;;;;16.07;14.53;;;;;;;;;;5065640;28;20181;-74
2022/08/19 07:33:06;;;;;;;15.43;13.80;;;;;;;;;;5080377;28;20262;-73
2022/08/19 07:35:32;;;;;;;16.30;13.93;;;;;;;;;;5088327;28;20184;-72
2022/08/19 07:38:02;;;;;;;15.73;13.97;;;;;;;;;;5090365;28;20191;-73
2022/08/19 07:40:28;;;;;;;16.17;14.40;;;;;;;;;;5086917;28;20180;-73
2022/08/19 07:42:54;;;;;;;14.83;13.40;;;;;;;;;;5087422;28;20572;-72
2022/08/19 07:45:21;;;;;;;14.87;13.37;;;;;;;;;;5087549;28;20225;-72
2022/08/19 07:47:47;;;;;;;18.53;12.90;;;;;;;;;;5089775;28;20172;-73
2022/08/19 07:50:13;;;;;;;14.83;13.33;;;;;;;;;;5081656;28;20186;-73
2022/08/19 07:52:40;;;;;;;15.97;13.50;;;;;;;;;;5077303;28;20776;-72
2022/08/19 07:55:07;;;;;;;14.57;13.07;;;;;;;;;;5084823;28;20666;-72
2022/08/19 07:57:33;;;;;;;14.67;13.23;;;;;;;;;;5081052;28;20552;-73
2022/08/19 07:59:59;;;;;;;14.83;13.33;;;;;;;;;;5087317;28;20206;-73
2022/08/19 08:02:26;;;;;;;13.97;12.57;;;;;;;;;;5088142;28;20216;-72
2022/08/19 08:10:22;;;;;;;13.07;11.77;;;;;;;;;;5082182;28;20520;-73
2022/08/19 08:12:48;;;;;;;11.60;10.03;;;;;;;;;;5085063;28;20208;-73
2022/08/19 08:15:16;;;;;;;12.00;10.90;;;;;;;;;;5087712;28;20687;-72
2022/08/19 08:17:43;;;;;;;12.57;11.27;;;;;;;;;;5086182;28;20237;-73
2022/08/19 08:20:09;;;;;;;12.17;10.93;;;;;;;;;;5080035;28;20902;-73
2022/08/19 08:25:23;;;;;;;12.23;11.03;;;;;;;;;;5083175;28;20184;-73
2022/08/19 08:27:50;;;;;;;11.70;10.60;;;;;;;;;;5087250;28;20199;-73
2022/08/19 08:30:17;;;;;;;11.33;9.90;;;;;;;;;;5085327;28;20187;-73
2022/08/19 08:32:44;;;;;;;11.37;10.17;;;;;;;;;;5089236;28;20707;-73
2022/08/19 08:35:13;;;;;;;10.10;9.20;;;;;;;;;;5088237;28;20169;-73
2022/08/19 08:37:39;;;;;;;12.23;9.80;;;;;;;;;;5086666;28;20196;-73
2022/08/19 08:40:07;;;;;;;10.37;9.47;;;;;;;;;;5084266;28;20177;-73
2022/08/19 08:42:36;;;;;;;9.83;8.80;;;;;;;;;;5085860;28;20258;-73
2022/08/19 08:45:06;;;;;;;10.07;9.07;;;;;;;;;;5087397;28;20195;-73
2022/08/19 08:47:36;;;;;;;9.77;8.87;;;;;;;;;;5084877;28;20180;-73
2022/08/19 08:50:12;;;;;;;9.80;8.53;;;;;;;;;;5085667;28;20189;-74
2022/08/19 08:52:42;;;;;;;10.90;9.20;;;;;;;;;;5081877;28;20222;-73
2022/08/19 08:55:12;;;;;;;9.00;8.13;;;;;;;;;;5082159;28;20203;-73
2022/08/19 08:57:53;;;;;;;9.40;8.50;;;;;;;;;;5080175;28;20184;-73
2022/08/19 09:00:29;;;;;;;9.10;7.73;;;;;;;;;;5077158;28;20299;-74
2022/08/19 09:02:57;;;;;;;10.10;8.10;;;;;;;;;;5075580;28;20211;-73
2022/08/19 09:05:26;;;;;;;9.47;7.97;;;;;;;;;;5087104;28;20191;-73
2022/08/19 09:08:05;;;;;;;7.93;6.90;;;;;;;;;;5090500;28;20530;-73
2022/08/19 09:10:44;;;;;;;6.83;6.10;;;;;;;;;;5091388;28;20197;-73
2022/08/19 09:13:25;;;;;;;8.23;7.20;;;;;;;;;;5085300;28;20266;-73
2022/08/19 09:15:55;;;;;;;8.60;7.70;;;;;;;;;;5086119;28;20193;-72
2022/08/19 09:18:21;;;;;;;8.57;7.43;;;;;;;;;;5078810;28;20254;-73
2022/08/19 09:20:48;;;;;;;7.17;6.47;;;;;;;;;;5083998;28;20712;-73
2022/08/19 09:23:14;;;;;;;7.97;6.90;;;;;;;;;;5079349;28;20211;-72
2022/08/19 09:25:40;;;;;;;8.97;7.60;;;;;;;;;;5087880;28;20234;-72
2022/08/19 09:28:07;;;;;;;7.40;6.70;;;;;;;;;;5089320;28;20263;-71
2022/08/19 09:30:34;;;;;;;7.83;6.83;;;;;;;;;;5089190;28;20180;-72
2022/08/19 09:33:01;;;;;;;7.63;6.43;;;;;;;;;;5080566;28;20212;-72
2022/08/19 09:35:31;;;;;;;8.30;7.10;;;;;;;;;;5082438;28;20187;-71
2022/08/19 09:37:58;;;;;;;7.77;7.00;;;;;;;;;;5081278;28;20643;-71
2022/08/19 09:40:26;;;;;;;8.67;7.00;;;;;;;;;;5086879;28;20195;-72
2022/08/19 09:42:52;;;;;;;7.87;7.07;;;;;;;;;;5085776;28;20204;-72
2022/08/19 09:45:21;;;;;;;7.70;7.00;;;;;;;;;;5087585;28;20337;-72
2022/08/19 09:47:47;;;;;;;7.10;5.97;;;;;;;;;;5087887;28;20196;-72
2022/08/19 09:50:14;;;;;;;6.50;5.80;;;;;;;;;;5085511;28;20188;-72
2022/08/19 09:52:42;;;;;;;6.40;5.80;;;;;;;;;;5079457;28;20310;-72
2022/08/19 09:55:09;;;;;;;8.53;6.03;;;;;;;;;;5086512;28;20189;-72
2022/08/19 09:57:36;;;;;;;6.27;5.60;;;;;;;;;;5086001;28;20188;-76
2022/08/19 10:00:04;;;;;;;6.00;5.40;;;;;;;;;;5088842;28;20181;-72
2022/08/19 10:02:34;;;;;;;6.17;5.60;;;;;;;;;;5086019;28;20242;-73
2022/08/19 10:07:46;;;;;;;6.97;5.97;;;;;;;;;;5086029;28;20188;-73
2022/08/19 10:10:13;;;;;;;6.23;5.37;;;;;;;;;;5087378;28;20198;-73
2022/08/19 10:12:39;;;;;;;5.77;5.17;;;;;;;;;;5082281;28;20963;-71
2022/08/19 10:15:06;;;;;;;5.53;5.03;;;;;;;;;;5083394;28;20803;-72
2022/08/19 10:17:34;;;;;;;9.17;5.40;;;;;;;;;;5078595;28;20184;-72
2022/08/19 10:20:02;;;;;;;5.73;5.23;;;;;;;;;;5084668;28;20185;-72
2022/08/19 10:22:29;;;;;;;7.10;5.50;;;;;;;;;;5079587;28;20192;-73
2022/08/19 10:24:56;;;;;;;5.00;4.60;;;;;;;;;;5079994;28;20187;-71
2022/08/19 10:27:22;;;;;;;5.23;4.67;;;;;;;;;;5082436;28;20255;-71
2022/08/19 10:29:48;;;;;;;6.10;5.20;;;;;;;;;;5082150;28;20188;-71
2022/08/19 10:32:15;;;;;;;5.63;4.83;;;;;;;;;;5086019;28;20199;-73
2022/08/19 10:34:41;;;;;;;6.07;4.40;;;;;;;;;;5082259;28;20530;-71
2022/08/19 10:37:07;;;;;;;5.40;4.90;;;;;;;;;;5080556;28;20212;-72
2022/08/19 10:39:34;;;;;;;6.60;5.00;;;;;;;;;;5081508;28;20216;-72
2022/08/19 10:42:05;;;;;;;5.40;5.00;;;;;;;;;;5080140;28;20196;-73
2022/08/19 10:44:32;;;;;;;5.30;4.83;;;;;;;;;;5082645;28;20211;-73
2022/08/19 10:46:58;;;;;;;7.50;5.47;;;;;;;;;;5087741;28;20696;-72
2022/08/19 10:49:24;;;;;;;6.53;5.30;;;;;;;;;;5084612;28;20279;-72
2022/08/19 10:57:23;;;;;;;5.47;4.97;;;;;;;;;;5091178;28;20195;-72
2022/08/19 10:59:50;;;;;;;6.20;5.60;;;;;;;;;;5088747;28;20176;-72
2022/08/19 11:02:16;;;;;;;6.10;5.60;;;;;;;;;;5083901;28;20201;-72
2022/08/19 11:04:42;;;;;;;6.80;6.20;;;;;;;;;;5082834;28;20572;-72
2022/08/19 11:07:08;;;;;;;6.30;5.70;;;;;;;;;;5083836;28;20208;-72
2022/08/19 11:09:39;;;;;;;7.17;6.47;;;;;;;;;;5087253;28;20179;-72
2022/08/19 11:12:07;;;;;;;6.90;6.20;;;;;;;;;;5077077;28;20258;-73
2022/08/19 11:14:34;;;;;;;7.67;6.80;;;;;;;;;;5088525;28;20207;-72
2022/08/19 11:17:00;;;;;;;6.37;5.97;;;;;;;;;;5086793;28;20713;-72
2022/08/19 11:19:26;;;;;;;6.00;5.50;;;;;;;;;;5087343;28;20194;-72
2022/08/19 11:21:54;;;;;;;6.63;5.90;;;;;;;;;;5087068;28;20220;-73
2022/08/19 11:24:22;;;;;;;7.57;6.97;;;;;;;;;;5084749;28;20181;-79
2022/08/19 11:26:49;;;;;;;7.97;7.27;;;;;;;;;;5090108;28;20728;-73
2022/08/19 11:29:15;;;;;;;8.73;7.90;;;;;;;;;;5083746;28;20189;-73
2022/08/19 11:31:42;;;;;;;8.23;7.47;;;;;;;;;;5090270;28;20219;-74
2022/08/19 11:34:10;;;;;;;9.30;8.40;;;;;;;;;;5092143;28;20200;-74
2022/08/19 11:36:42;;;;;;;8.33;7.53;;;;;;;;;;5094514;28;20189;-73
2022/08/19 11:39:08;;;;;;;7.60;7.00;;;;;;;;;;5095004;28;20263;-74
2022/08/19 11:41:35;;;;;;;9.50;8.70;;;;;;;;;;5084362;28;20187;-72
2022/08/19 11:44:02;;;;;;;8.07;7.37;;;;;;;;;;5088894;28;20188;-74
2022/08/19 11:46:29;;;;;;;8.83;7.93;;;;;;;;;;5085518;28;20623;-75
2022/08/19 11:49:00;;;;;;;9.63;8.10;;;;;;;;;;5088348;28;20176;-76
2022/08/19 11:51:27;;;;;;;9.00;8.30;;;;;;;;;;5082247;28;20196;-73
2022/08/19 11:53:53;;;;;;;8.33;7.53;;;;;;;;;;5086762;28;20209;-72
2022/08/19 11:56:20;;;;;;;7.83;7.13;;;;;;;;;;5080281;28;20656;-73
2022/08/19 11:58:47;;;;;;;7.50;6.90;;;;;;;;;;5086486;28;20509;-72
2022/08/19 12:01:15;;;;;;;8.10;7.40;;;;;;;;;;5084437;28;20268;-72
2022/08/19 12:03:43;;;;;;;8.27;7.57;;;;;;;;;;5085808;28;20208;-72
2022/08/19 12:06:13;;;;;;;9.63;8.10;;;;;;;;;;5086414;28;20189;-72
2022/08/19 12:08:39;;;;;;;8.67;7.97;;;;;;;;;;5090979;28;20185;-72
2022/08/19 12:11:07;;;;;;;9.27;8.57;;;;;;;;;;5085553;28;20189;-72
2022/08/19 12:13:34;;;;;;;9.10;8.30;;;;;;;;;;5088858;28;20269;-72
2022/08/19 12:16:01;;;;;;;8.80;8.10;;;;;;;;;;5087401;28;20189;-72
2022/08/19 12:18:28;;;;;;;10.10;9.20;;;;;;;;;;5088493;28;20173;-72
2022/08/19 12:20:54;;;;;;;8.70;8.00;;;;;;;;;;5082204;28;20177;-72
2022/08/19 12:23:21;;;;;;;8.80;8.07;;;;;;;;;;5089276;28;20237;-72
2022/08/19 12:25:51;;;;;;;7.70;7.00;;;;;;;;;;5085880;28;20193;-72
2022/08/19 12:28:20;;;;;;;7.10;6.50;;;;;;;;;;5086363;28;20561;-72
2022/08/19 12:30:47;;;;;;;7.67;6.93;;;;;;;;;;5082109;28;20189;-72
2022/08/19 12:33:13;;;;;;;7.60;7.00;;;;;;;;;;5084152;28;20217;-72
2022/08/19 12:35:43;;;;;;;8.43;7.07;;;;;;;;;;5082555;28;20177;-73
2022/08/19 12:38:10;;;;;;;8.53;7.40;;;;;;;;;;5090298;28;20214;-73
2022/08/19 12:40:37;;;;;;;7.10;6.53;;;;;;;;;;5083981;28;20188;-72
2022/08/19 12:43:03;;;;;;;7.23;6.60;;;;;;;;;;5080845;28;20269;-73
2022/08/19 12:45:30;;;;;;;7.53;6.83;;;;;;;;;;5087508;28;20206;-72
2022/08/19 12:47:56;;;;;;;6.77;6.27;;;;;;;;;;5082772;28;20193;-72
2022/08/19 12:50:22;;;;;;;6.57;6.07;;;;;;;;;;5088972;28;20196;-72
2022/08/19 12:52:49;;;;;;;6.40;5.80;;;;;;;;;;5083342;28;20251;-72
2022/08/19 12:55:15;;;;;;;6.43;5.93;;;;;;;;;;5090342;28;20173;-73
2022/08/19 12:57:41;;;;;;;6.70;5.97;;;;;;;;;;5081215;28;20183;-72
2022/08/19 13:00:12;;;;;;;7.93;6.07;;;;;;;;;;5087769;28;20186;-73
2022/08/19 13:02:40;;;;;;;6.90;6.27;;;;;;;;;;5077287;28;20219;-73
2022/08/19 13:05:10;;;;;;;6.60;6.00;;;;;;;;;;5079555;28;20481;-73
2022/08/19 13:07:38;;;;;;;6.87;6.27;;;;;;;;;;5086902;28;20314;-72
2022/08/19 13:10:06;;;;;;;6.20;5.70;;;;;;;;;;5086817;28;20189;-72
2022/08/19 13:12:32;;;;;;;6.57;6.07;;;;;;;;;;5084092;28;20229;-72
2022/08/19 13:14:58;;;;;;;6.20;5.70;;;;;;;;;;5084927;28;20187;-72
2022/08/19 13:17:24;;;;;;;5.80;5.40;;;;;;;;;;5089380;28;20554;-73
2022/08/19 13:19:51;;;;;;;5.53;5.13;;;;;;;;;;5080649;28;20206;-72
2022/08/19 13:22:17;;;;;;;5.77;5.27;;;;;;;;;;5089795;28;20629;-73
2022/08/19 13:24:43;;;;;;;5.47;5.07;;;;;;;;;;5087469;28;20187;-73
2022/08/19 13:27:10;;;;;;;5.63;5.13;;;;;;;;;;5086848;28;20191;-73
2022/08/19 13:35:06;;;;;;;5.00;4.50;;;;;;;;;;5090414;28;20190;-78
2022/08/19 13:37:41;;;;;;;4.87;4.47;;;;;;;;;;5089274;28;20218;-75
2022/08/19 13:40:11;;;;;;;5.50;5.10;;;;;;;;;;5089018;28;20570;-73
2022/08/19 13:42:37;;;;;;;4.73;4.33;;;;;;;;;;5085029;28;20204;-73
2022/08/19 13:45:06;;;;;;;5.03;4.63;;;;;;;;;;5088581;28;20292;-73
2022/08/19 13:47:34;;;;;;;5.27;4.43;;;;;;;;;;5084380;28;20812;-74
2022/08/19 13:50:00;;;;;;;4.60;4.30;;;;;;;;;;5089191;28;20186;-74
2022/08/19 13:52:26;;;;;;;5.03;4.57;;;;;;;;;;5088528;28;20198;-74
2022/08/19 13:54:53;;;;;;;4.90;4.60;;;;;;;;;;5092004;28;20209;-77
2022/08/19 13:57:20;;;;;;;5.03;4.63;;;;;;;;;;5086312;28;20169;-72
2022/08/19 13:59:46;;;;;;;6.77;4.70;;;;;;;;;;5084707;28;20593;-73
2022/08/19 14:02:12;;;;;;;5.00;4.57;;;;;;;;;;5085901;28;20195;-73
2022/08/19 14:04:38;;;;;;;6.27;5.67;;;;;;;;;;5089158;28;20189;-73
2022/08/19 14:07:04;;;;;;;5.47;5.07;;;;;;;;;;5091891;28;20184;-73
2022/08/19 14:09:31;;;;;;;5.17;4.67;;;;;;;;;;5090233;28;20191;-73
2022/08/19 14:11:57;;;;;;;4.80;4.40;;;;;;;;;;5081716;28;20295;-74
2022/08/19 14:14:23;;;;;;;4.90;4.60;;;;;;;;;;5091742;28;20522;-74
2022/08/19 14:16:51;;;;;;;4.90;4.60;;;;;;;;;;5086034;28;20185;-74
2022/08/19 14:19:19;;;;;;;4.90;4.50;;;;;;;;;;5090180;28;20559;-73
2022/08/19 14:21:45;;;;;;;4.90;4.40;;;;;;;;;;5086985;28;20249;-74
2022/08/19 14:24:11;;;;;;;4.63;4.33;;;;;;;;;;5091588;28;20179;-74
2022/08/19 14:26:38;;;;;;;4.97;4.67;;;;;;;;;;5092130;28;20680;-74
2022/08/19 14:29:04;;;;;;;5.13;4.83;;;;;;;;;;5089125;28;20186;-73
2022/08/19 14:31:30;;;;;;;6.07;5.10;;;;;;;;;;5084752;28;20571;-73
2022/08/19 14:33:56;;;;;;;5.70;5.23;;;;;;;;;;5084291;28;20663;-74
2022/08/19 14:36:23;;;;;;;5.10;4.70;;;;;;;;;;5084977;28;20184;-74
2022/08/19 14:38:49;;;;;;;4.97;4.57;;;;;;;;;;5084070;28;20197;-74
2022/08/19 14:41:20;;;;;;;5.20;4.80;;;;;;;;;;5087778;28;20644;-73
2022/08/19 14:43:51;;;;;;;5.20;4.80;;;;;;;;;;5087757;28;20185;-73
2022/08/19 14:46:20;;;;;;;5.37;4.97;;;;;;;;;;5085025;28;20790;-74
2022/08/19 14:48:47;;;;;;;5.37;4.97;;;;;;;;;;5080967;28;20186;-74
2022/08/19 14:51:13;;;;;;;5.40;5.00;;;;;;;;;;5085934;28;20258;-73
2022/08/19 14:53:40;;;;;;;5.10;4.70;;;;;;;;;;5085357;28;20217;-73
2022/08/19 14:56:10;;;;;;;5.20;4.77;;;;;;;;;;5086635;28;20192;-73
2022/08/19 14:58:36;;;;;;;5.30;4.80;;;;;;;;;;5085534;28;20688;-74